F/V Cote D'ambre — FPEY — position and weather

sailwx.info

Track history (hours):
 
Tides and Currents Weather Stations Pressure Air Temp Water Temp Dewpoint Dewpoint Depression Visibility Wind Speed Wind Dir Waves Ship Positions

F/V Cote D'ambre

Last reported at 2015-Aug-01 11:07 UTC. Time now 2015-Aug-03 02:33 UTC.
Position N 47°44' W 003°22'.

Length 16 m; draft 4 m.

Type: Fishing. MMSI: 227128800.

Date/timePositionNaut miles runAvg speedWind from/ knotsBaromVisibWave heightAir tempDewpointWater temp
2015-Aug-01 11:07N 47°44' W 003°22'0 0.3
2015-Aug-01 10:33N 47°44' W 003°22'0 0.0
2015-Jul-31 18:32N 47°44' W 003°22'2 1.8
2015-Jul-31 17:33N 47°42' W 003°22'8 8.3
2015-Jul-31 16:33N 47°34' W 003°25'8 8.4
2015-Jul-31 15:33N 47°26' W 003°26'4 4.0
2015-Jul-31 14:33N 47°22' W 003°27'3 2.6
2015-Jul-31 13:33N 47°23' W 003°30'3 3.5
2015-Jul-31 12:33N 47°27' W 003°29'8 8.4
2015-Jul-31 11:33N 47°35' W 003°25'8 8.1
2015-Jul-31 10:33N 47°43' W 003°22'1 0.1
2015-Jul-30 16:33N 47°44' W 003°22'0 0.1
2015-Jul-30 15:34N 47°44' W 003°22'0 0.1
2015-Jul-30 14:32N 47°44' W 003°22'0 0.0
2015-Jul-30 13:33N 47°44' W 003°22'0 0.1
2015-Jul-30 12:32N 47°44' W 003°22'0 0.0
2015-Jul-30 11:32N 47°44' W 003°22'0 0.0
2015-Jul-30 10:32N 47°44' W 003°22'0 0.0
2015-Jul-30 09:32N 47°44' W 003°22'0 0.0
2015-Jul-30 08:32N 47°44' W 003°22'0 0.0
2015-Jul-30 07:32N 47°44' W 003°22'0 0.0
2015-Jul-30 06:32N 47°44' W 003°22'  
2015-Jul-27 14:27N 47°44' W 003°22'0 0.0
2015-Jul-27 13:33N 47°44' W 003°22'  
Track history (hours):
 
Tides and Currents Weather Stations Pressure Air Temp Water Temp Dewpoint Dewpoint Depression Visibility Wind Speed Wind Dir Waves Ship Positions

F/V Cote D'ambre

Last reported at 2015-Aug-01 11:07 UTC. Time now 2015-Aug-03 02:33 UTC.
Position N 47°44' W 003°22'.

Length 16 m; draft 4 m.

Type: Fishing. MMSI: 227128800.

Date/timePositionNaut miles runAvg speedWind from/ knotsBaromVisibWave heightAir tempDewpointWater temp
2015-Aug-01 11:07N 47°44' W 003°22'0 0.3
2015-Aug-01 10:33N 47°44' W 003°22'0 0.0
2015-Jul-31 18:32N 47°44' W 003°22'2 1.8
2015-Jul-31 17:33N 47°42' W 003°22'8 8.3
2015-Jul-31 16:33N 47°34' W 003°25'8 8.4
2015-Jul-31 15:33N 47°26' W 003°26'4 4.0
2015-Jul-31 14:33N 47°22' W 003°27'3 2.6
2015-Jul-31 13:33N 47°23' W 003°30'3 3.5
2015-Jul-31 12:33N 47°27' W 003°29'8 8.4
2015-Jul-31 11:33N 47°35' W 003°25'8 8.1
2015-Jul-31 10:33N 47°43' W 003°22'1 0.1
2015-Jul-30 16:33N 47°44' W 003°22'0 0.1
2015-Jul-30 15:34N 47°44' W 003°22'0 0.1
2015-Jul-30 14:32N 47°44' W 003°22'0 0.0
2015-Jul-30 13:33N 47°44' W 003°22'0 0.1
2015-Jul-30 12:32N 47°44' W 003°22'0 0.0
2015-Jul-30 11:32N 47°44' W 003°22'0 0.0
2015-Jul-30 10:32N 47°44' W 003°22'0 0.0
2015-Jul-30 09:32N 47°44' W 003°22'0 0.0
2015-Jul-30 08:32N 47°44' W 003°22'0 0.0
2015-Jul-30 07:32N 47°44' W 003°22'0 0.0
2015-Jul-30 06:32N 47°44' W 003°22'  
2015-Jul-27 14:27N 47°44' W 003°22'0 0.0
2015-Jul-27 13:33N 47°44' W 003°22'  

Dump ship's entire track history